createdAt,value
2022-10-11T00:00:22.011Z,11.34
2022-10-11T00:01:21.350Z,11.28
2022-10-11T00:02:21.377Z,11.24
2022-10-11T00:03:21.188Z,11.20
2022-10-11T00:04:21.501Z,11.17
2022-10-11T00:05:21.918Z,11.14
2022-10-11T00:06:21.286Z,11.12
2022-10-11T00:07:21.177Z,11.10
2022-10-11T00:08:21.284Z,11.08
2022-10-11T00:09:21.784Z,11.06
2022-10-11T00:10:22.107Z,11.02
2022-10-11T00:11:20.992Z,10.98
2022-10-11T00:12:21.927Z,10.94
2022-10-11T00:13:20.988Z,10.91
2022-10-11T00:14:21.758Z,10.89
2022-10-11T00:15:21.367Z,10.90
2022-10-11T00:16:22.014Z,10.92
2022-10-11T00:17:20.930Z,10.92
2022-10-11T00:18:21.669Z,10.92
2022-10-11T00:19:21.618Z,10.92
2022-10-11T00:20:22.807Z,10.93
2022-10-11T00:21:21.518Z,10.94
2022-10-11T00:22:21.867Z,10.94
2022-10-11T00:23:21.534Z,10.94
2022-10-11T00:24:21.599Z,10.93
2022-10-11T00:25:20.828Z,10.91
2022-10-11T00:26:20.886Z,10.90
2022-10-11T00:27:21.546Z,10.89
2022-10-11T00:28:21.088Z,10.86
2022-10-11T00:29:20.768Z,10.84
2022-10-11T00:30:21.711Z,10.82
2022-10-11T00:31:21.438Z,10.78
2022-10-11T00:32:21.045Z,10.76
2022-10-11T00:33:20.730Z,10.73
2022-10-11T00:34:20.988Z,10.70
2022-10-11T00:35:20.716Z,10.69
2022-10-11T00:36:23.009Z,10.68
2022-10-11T00:37:20.648Z,10.69
2022-10-11T00:38:21.607Z,10.70
2022-10-11T00:39:20.628Z,10.71
2022-10-11T00:40:20.839Z,10.72
2022-10-11T00:41:20.623Z,10.71
2022-10-11T00:42:21.718Z,10.69
2022-10-11T00:43:20.548Z,10.67
2022-10-11T00:44:20.689Z,10.65
2022-10-11T00:45:20.560Z,10.65
2022-10-11T00:46:20.737Z,10.66
2022-10-11T00:47:20.529Z,10.67
2022-10-11T00:48:21.874Z,10.69
2022-10-11T00:49:20.508Z,10.68
2022-10-11T00:50:20.706Z,10.67
2022-10-11T00:51:21.107Z,10.67
2022-10-11T00:52:21.450Z,10.67
2022-10-11T00:53:21.147Z,10.67
2022-10-11T00:54:23.349Z,10.66
2022-10-11T00:55:21.227Z,10.64
2022-10-11T00:56:21.207Z,10.63
2022-10-11T00:57:21.100Z,10.62
2022-10-11T00:58:21.357Z,10.62
2022-10-11T00:59:21.047Z,10.62
2022-10-11T01:00:21.125Z,10.62
2022-10-11T01:01:20.690Z,10.63
2022-10-11T01:02:20.537Z,10.63
2022-10-11T01:03:20.349Z,10.62
2022-10-11T01:04:22.837Z,10.61
2022-10-11T01:05:29.894Z,10.60
2022-10-11T01:06:21.968Z,10.61
2022-10-11T01:07:41.979Z,10.62
2022-10-11T01:08:20.877Z,10.64
2022-10-11T01:09:21.018Z,10.67
2022-10-11T01:10:21.934Z,10.68
2022-10-11T01:11:21.167Z,10.68
2022-10-11T01:12:20.242Z,10.68
2022-10-11T01:13:23.228Z,10.69
2022-10-11T01:14:20.797Z,10.69
2022-10-11T01:15:21.229Z,10.70
2022-10-11T01:16:20.158Z,10.72
2022-10-11T01:17:42.010Z,10.73
2022-10-11T01:18:20.788Z,10.73
2022-10-11T01:19:20.277Z,10.75
2022-10-11T01:20:20.798Z,10.75
2022-10-11T01:21:20.898Z,10.75
2022-10-11T01:22:20.968Z,10.74
2022-10-11T01:23:42.003Z,10.76
2022-10-11T01:24:20.847Z,10.79
2022-10-11T01:25:20.890Z,10.83
2022-10-11T01:26:20.698Z,10.85
2022-10-11T01:27:20.837Z,10.86
2022-10-11T01:28:20.958Z,10.86
2022-10-11T01:29:20.137Z,10.85
2022-10-11T01:30:19.957Z,10.83
2022-10-11T01:31:20.318Z,10.82
2022-10-11T01:32:20.237Z,10.82
2022-10-11T01:33:20.109Z,10.84
2022-10-11T01:34:19.928Z,10.86
2022-10-11T01:35:40.998Z,10.86
2022-10-11T01:36:19.899Z,10.86
2022-10-11T01:37:21.741Z,10.88
2022-10-11T01:38:19.969Z,10.90
2022-10-11T01:39:20.020Z,10.92
2022-10-11T01:40:20.708Z,10.92
2022-10-11T01:41:41.607Z,10.91
2022-10-11T01:42:22.248Z,10.90
2022-10-11T01:43:20.577Z,10.87
2022-10-11T01:44:20.428Z,10.85
2022-10-11T01:45:41.689Z,10.83
2022-10-11T01:46:19.729Z,10.82
2022-10-11T01:48:29.939Z,10.25
2022-10-11T01:49:29.610Z,10.26
2022-10-11T01:50:29.720Z,10.49
2022-10-11T01:51:29.830Z,10.63
2022-10-11T01:52:29.740Z,10.71
2022-10-11T01:53:29.707Z,10.76
2022-10-11T01:54:44.341Z,10.79
2022-10-11T01:55:31.759Z,10.81
2022-10-11T01:56:30.230Z,10.82
2022-10-11T01:57:29.867Z,10.82
2022-10-11T01:58:29.567Z,10.82
2022-10-11T01:59:29.619Z,10.80
2022-10-11T02:00:29.546Z,10.80
2022-10-11T02:01:29.679Z,10.81
2022-10-11T02:02:28.770Z,10.83
2022-10-11T02:03:29.729Z,10.87
2022-10-11T02:04:29.445Z,10.88
2022-10-11T02:05:51.461Z,10.89
2022-10-11T02:06:29.528Z,10.88
2022-10-11T02:07:29.465Z,10.88
2022-10-11T02:08:29.358Z,10.89
2022-10-11T02:09:29.719Z,10.91
2022-10-11T02:10:29.379Z,10.93
2022-10-11T02:11:29.529Z,10.94
2022-10-11T02:12:29.340Z,10.95
2022-10-11T02:13:30.408Z,10.94
2022-10-11T02:14:29.359Z,10.94
2022-10-11T02:15:29.597Z,10.92
2022-10-11T02:16:29.285Z,10.91
2022-10-11T02:17:31.790Z,10.91
2022-10-11T02:18:29.277Z,10.93
2022-10-11T02:19:29.276Z,10.95
2022-10-11T02:20:29.187Z,10.97
2022-10-11T02:21:29.529Z,10.98
2022-10-11T02:22:29.240Z,10.99
2022-10-11T02:23:29.357Z,11.00
2022-10-11T02:24:29.129Z,11.02
2022-10-11T02:25:29.279Z,11.03
2022-10-11T02:26:28.455Z,11.05
2022-10-11T02:27:29.648Z,11.07
2022-10-11T02:28:29.125Z,11.08
2022-10-11T02:29:29.268Z,11.09
2022-10-11T02:30:29.098Z,11.11
2022-10-11T02:31:29.189Z,11.12
2022-10-11T02:32:29.039Z,11.12
2022-10-11T02:33:28.738Z,11.10
2022-10-11T02:34:28.386Z,11.08
2022-10-11T02:35:29.228Z,11.06
2022-10-11T02:36:28.413Z,11.05
2022-10-11T02:37:30.578Z,11.04
2022-10-11T02:38:29.091Z,11.04
2022-10-11T02:39:29.200Z,11.03
2022-10-11T02:40:28.328Z,11.03
2022-10-11T02:41:28.520Z,11.03
2022-10-11T02:42:28.389Z,11.03
2022-10-11T02:43:49.478Z,11.02
2022-10-11T02:44:28.306Z,11.01
2022-10-11T02:45:28.498Z,11.01
2022-10-11T02:46:28.189Z,11.00
2022-10-11T02:47:28.389Z,11.00
2022-10-11T02:48:28.205Z,10.99
2022-10-11T02:49:28.348Z,11.00
2022-10-11T02:50:28.149Z,11.02
2022-10-11T02:51:28.269Z,11.04
2022-10-11T02:52:28.169Z,11.07
2022-10-11T02:53:29.039Z,11.10
2022-10-11T02:54:28.195Z,11.12
2022-10-11T02:55:28.280Z,11.12
2022-10-11T02:56:28.129Z,11.12
2022-10-11T02:57:28.278Z,11.12
2022-10-11T02:58:28.042Z,11.11
2022-10-11T02:59:28.809Z,11.09
2022-10-11T03:00:28.708Z,11.08
2022-10-11T03:01:28.824Z,11.07
2022-10-11T03:02:28.017Z,11.07
2022-10-11T03:03:28.187Z,11.07
2022-10-11T03:04:28.669Z,11.08
2022-10-11T03:05:28.200Z,11.09
2022-10-11T03:06:27.958Z,11.09
2022-10-11T03:07:28.938Z,11.08
2022-10-11T03:08:28.559Z,11.06
2022-10-11T03:09:29.199Z,11.06
2022-10-11T03:10:28.569Z,11.06
2022-10-11T03:11:28.730Z,11.07
2022-10-11T03:12:28.649Z,11.07
2022-10-11T03:13:28.802Z,11.07
2022-10-11T03:14:28.488Z,11.07
2022-10-11T03:15:28.787Z,11.09
2022-10-11T03:16:27.806Z,11.10
2022-10-11T03:17:36.707Z,11.10
2022-10-11T03:18:29.453Z,11.10
2022-10-11T03:19:28.649Z,11.09
2022-10-11T03:20:28.468Z,11.08
2022-10-11T03:21:28.780Z,11.07
2022-10-11T03:22:27.709Z,11.06
2022-10-11T03:23:28.688Z,11.08
2022-10-11T03:24:28.410Z,11.11
2022-10-11T03:25:28.488Z,11.13
2022-10-11T03:26:28.369Z,11.13
2022-10-11T03:27:28.718Z,11.12
2022-10-11T03:28:28.368Z,11.10
2022-10-11T03:29:28.467Z,11.07
2022-10-11T03:30:28.317Z,11.03
2022-10-11T03:31:28.927Z,10.98
2022-10-11T03:32:28.248Z,10.94
2022-10-11T03:33:27.698Z,10.90
2022-10-11T03:34:28.247Z,10.88
2022-10-11T03:35:30.326Z,10.86
2022-10-11T03:36:28.237Z,10.82
2022-10-11T03:37:29.680Z,10.79
2022-10-11T03:38:27.607Z,10.79
2022-10-11T03:39:27.758Z,10.80
2022-10-11T03:40:27.679Z,10.80
2022-10-11T03:41:27.899Z,10.78
2022-10-11T03:42:27.468Z,10.74
2022-10-11T03:43:27.613Z,10.71
2022-10-11T03:44:27.420Z,10.68
2022-10-11T03:45:29.552Z,10.63
2022-10-11T03:46:27.629Z,10.60
2022-10-11T03:47:28.279Z,10.57
2022-10-11T03:48:27.407Z,10.53
2022-10-11T03:49:27.649Z,10.51
2022-10-11T03:50:27.329Z,10.49
2022-10-11T03:51:28.430Z,10.47
2022-10-11T03:52:27.329Z,10.46
2022-10-11T03:53:27.398Z,10.47
2022-10-11T03:54:27.308Z,10.47
2022-10-11T03:55:27.418Z,10.46
2022-10-11T03:56:27.279Z,10.47
2022-10-11T03:57:29.488Z,10.45
2022-10-11T03:58:27.228Z,10.42
2022-10-11T03:59:29.268Z,10.39
2022-10-11T04:00:27.229Z,10.36
2022-10-11T04:01:28.142Z,10.34
2022-10-11T04:02:27.898Z,10.31
2022-10-11T04:03:28.368Z,10.28
2022-10-11T04:04:27.938Z,10.26
2022-10-11T04:05:29.019Z,10.26
2022-10-11T04:06:27.850Z,10.26
2022-10-11T04:07:28.029Z,10.26
2022-10-11T04:08:27.749Z,10.26
2022-10-11T04:09:32.838Z,10.26
2022-10-11T04:10:27.489Z,10.26
2022-10-11T04:11:27.237Z,10.26
2022-10-11T04:12:27.749Z,10.25
2022-10-11T04:13:27.939Z,10.25
2022-10-11T04:14:27.680Z,10.24
2022-10-11T04:15:27.227Z,10.23
2022-10-11T04:16:28.841Z,10.22
2022-10-11T04:17:27.117Z,10.22
2022-10-11T04:18:27.039Z,10.23
2022-10-11T04:19:27.041Z,10.24
2022-10-11T04:20:26.947Z,10.25
2022-10-11T04:21:28.016Z,10.27
2022-10-11T04:22:27.618Z,10.27
2022-10-11T04:23:27.019Z,10.28
2022-10-11T04:24:27.667Z,10.26
2022-10-11T04:25:27.260Z,10.25
2022-10-11T04:26:29.168Z,10.24
2022-10-11T04:27:31.228Z,10.23
2022-10-11T04:28:26.896Z,10.22
2022-10-11T04:29:32.595Z,10.21
2022-10-11T04:30:37.848Z,10.19
2022-10-11T04:31:29.565Z,10.18
2022-10-11T04:32:26.788Z,10.17
2022-10-11T04:33:26.973Z,10.16
2022-10-11T04:34:26.778Z,10.16
2022-10-11T04:35:27.635Z,10.17
2022-10-11T04:36:27.449Z,10.20
2022-10-11T04:37:26.893Z,10.20
2022-10-11T04:38:27.369Z,10.18
2022-10-11T04:39:29.349Z,10.16
2022-10-11T04:40:26.768Z,10.15
2022-10-11T04:41:26.839Z,10.15
2022-10-11T04:42:27.359Z,10.15
2022-10-11T04:43:28.399Z,10.17
2022-10-11T04:44:27.179Z,10.19
2022-10-11T04:45:26.939Z,10.19
2022-10-11T04:46:26.781Z,10.20
2022-10-11T04:47:26.890Z,10.21
2022-10-11T04:48:26.769Z,10.22
2022-10-11T04:49:26.781Z,10.25
2022-10-11T04:50:26.819Z,10.26
2022-10-11T04:51:29.069Z,10.24
2022-10-11T04:52:26.677Z,10.22
2022-10-11T04:53:26.826Z,10.21
2022-10-11T04:54:26.508Z,10.19
2022-10-11T04:55:26.989Z,10.18
2022-10-11T04:56:26.700Z,10.18
2022-10-11T04:57:27.721Z,10.17
2022-10-11T04:58:27.809Z,10.18
2022-10-11T04:59:26.719Z,10.20
2022-10-11T05:00:26.739Z,10.22
2022-10-11T05:01:27.477Z,10.23
2022-10-11T05:02:26.458Z,10.24
2022-10-11T05:03:26.579Z,10.25
2022-10-11T05:04:26.368Z,10.24
2022-10-11T05:05:26.488Z,10.24
2022-10-11T05:06:27.087Z,10.24
2022-10-11T05:07:27.209Z,10.25
2022-10-11T05:08:26.970Z,10.28
2022-10-11T05:09:26.951Z,10.32
2022-10-11T05:10:26.275Z,10.36
2022-10-11T05:11:26.541Z,10.39
2022-10-11T05:12:26.339Z,10.40
2022-10-11T05:13:26.819Z,10.40
2022-10-11T05:14:26.267Z,10.42
2022-10-11T05:15:26.308Z,10.41
2022-10-11T05:16:26.380Z,10.40
2022-10-11T05:17:26.396Z,10.38
2022-10-11T05:18:26.237Z,10.38
2022-10-11T05:19:28.498Z,10.40
2022-10-11T05:20:26.216Z,10.42
2022-10-11T05:21:26.329Z,10.44
2022-10-11T05:22:26.159Z,10.44
2022-10-11T05:23:26.280Z,10.43
2022-10-11T05:24:26.197Z,10.43
2022-10-11T05:25:26.449Z,10.43
2022-10-11T05:26:26.228Z,10.43
2022-10-11T05:27:26.263Z,10.44
2022-10-11T05:28:26.355Z,10.43
2022-10-11T05:29:32.650Z,10.44
2022-10-11T05:30:30.699Z,10.44
2022-10-11T05:31:26.118Z,10.44
2022-10-11T05:32:28.169Z,10.44
2022-10-11T05:33:26.060Z,10.42
2022-10-11T05:34:26.810Z,10.41
2022-10-11T05:35:26.637Z,10.41
2022-10-11T05:36:26.059Z,10.43
2022-10-11T05:37:25.929Z,10.44
2022-10-11T05:38:25.988Z,10.45
2022-10-11T05:39:26.790Z,10.46
2022-10-11T05:40:26.456Z,10.48
2022-10-11T05:41:25.897Z,10.48
2022-10-11T05:42:25.949Z,10.49
2022-10-11T05:43:25.866Z,10.50
2022-10-11T05:44:26.638Z,10.52
2022-10-11T05:45:25.856Z,10.54
2022-10-11T05:46:26.719Z,10.53
2022-10-11T05:47:25.790Z,10.54
2022-10-11T05:48:27.940Z,10.55
2022-10-11T05:49:26.458Z,10.55
2022-10-11T05:50:26.546Z,10.58
2022-10-11T05:51:25.779Z,10.58
2022-10-11T05:52:28.060Z,10.57
2022-10-11T05:53:26.351Z,10.54
2022-10-11T05:54:26.036Z,10.53
2022-10-11T05:55:25.909Z,10.53
2022-10-11T05:56:25.914Z,10.54
2022-10-11T05:57:25.860Z,10.53
2022-10-11T05:58:26.828Z,10.50
2022-10-11T05:59:25.758Z,10.47
2022-10-11T06:00:25.890Z,10.46
2022-10-11T06:01:25.765Z,10.45
2022-10-11T06:02:26.109Z,10.44
2022-10-11T06:03:25.812Z,10.43
2022-10-11T06:04:28.228Z,10.43
2022-10-11T06:05:25.560Z,10.43
2022-10-11T06:06:25.708Z,10.41
2022-10-11T06:07:25.537Z,10.39
2022-10-11T06:08:28.019Z,10.37
2022-10-11T06:09:26.909Z,10.36
2022-10-11T06:10:25.658Z,10.36
2022-10-11T06:11:25.467Z,10.35
2022-10-11T06:12:25.579Z,10.32
2022-10-11T06:13:25.469Z,10.28
2022-10-11T06:14:25.628Z,10.26
2022-10-11T06:15:26.542Z,10.25
2022-10-11T06:16:25.558Z,10.25
2022-10-11T06:17:25.538Z,10.25
2022-10-11T06:18:25.509Z,10.23
2022-10-11T06:19:25.456Z,10.22
2022-10-11T06:20:25.622Z,10.21
2022-10-11T06:21:25.458Z,10.22
2022-10-11T06:22:25.627Z,10.22
2022-10-11T06:23:25.519Z,10.22
2022-10-11T06:24:25.471Z,10.21
2022-10-11T06:25:25.579Z,10.21
2022-10-11T06:26:25.479Z,10.18
2022-10-11T06:27:25.441Z,10.16
2022-10-11T06:28:26.224Z,10.14
2022-10-11T06:29:25.990Z,10.13
2022-10-11T06:30:26.629Z,10.14
2022-10-11T06:31:58.549Z,10.14
2022-10-11T06:33:34.650Z,9.54
2022-10-11T06:34:34.541Z,9.54
2022-10-11T06:35:37.131Z,9.78
2022-10-11T06:36:35.560Z,9.93
2022-10-11T06:37:34.752Z,10.02
2022-10-11T06:38:34.531Z,10.09
2022-10-11T06:39:34.559Z,10.15
2022-10-11T06:40:34.471Z,10.18
2022-10-11T06:41:34.898Z,10.20
2022-10-11T06:42:34.732Z,10.20
2022-10-11T06:43:34.515Z,10.20
2022-10-11T06:44:34.451Z,10.22
2022-10-11T06:45:34.911Z,10.24
2022-10-11T06:46:34.810Z,10.27
2022-10-11T06:47:34.370Z,10.30
2022-10-11T06:48:35.762Z,10.33
2022-10-11T06:49:34.412Z,10.36
2022-10-11T06:50:57.999Z,10.40
2022-10-11T06:51:35.422Z,10.43
2022-10-11T06:52:34.781Z,10.45
2022-10-11T06:53:34.480Z,10.45
2022-10-11T06:54:34.563Z,10.46
2022-10-11T06:55:34.863Z,10.46
2022-10-11T06:56:34.521Z,10.48
2022-10-11T06:57:34.603Z,10.52
2022-10-11T06:58:34.530Z,10.56
2022-10-11T06:59:36.952Z,10.60
2022-10-11T07:00:34.542Z,10.63
2022-10-11T07:01:41.920Z,10.66
2022-10-11T07:02:34.445Z,10.68
2022-10-11T07:03:34.502Z,10.72
2022-10-11T07:04:36.062Z,10.76
2022-10-11T07:05:35.032Z,10.79
2022-10-11T07:06:35.810Z,10.82
2022-10-11T07:07:34.528Z,10.85
2022-10-11T07:08:34.422Z,10.87
2022-10-11T07:09:36.482Z,10.91
2022-10-11T07:10:35.047Z,10.96
2022-10-11T07:11:35.130Z,11.02
2022-10-11T07:12:34.460Z,11.09
2022-10-11T07:13:34.502Z,11.13
2022-10-11T07:14:34.152Z,11.16
2022-10-11T07:15:34.367Z,11.19
2022-10-11T07:16:34.040Z,11.22
2022-10-11T07:17:34.033Z,11.25
2022-10-11T07:18:34.734Z,11.30
2022-10-11T07:19:34.174Z,11.32
2022-10-11T07:20:37.051Z,11.34
2022-10-11T07:21:34.179Z,11.37
2022-10-11T07:22:33.943Z,11.39
2022-10-11T07:23:39.057Z,11.44
2022-10-11T07:24:35.892Z,11.48
2022-10-11T07:25:36.133Z,11.53
2022-10-11T07:26:38.907Z,11.60
2022-10-11T07:27:36.296Z,11.67
2022-10-11T07:28:33.885Z,11.74
2022-10-11T07:29:33.844Z,11.79
2022-10-11T07:30:33.801Z,11.82
2022-10-11T07:31:35.000Z,11.86
2022-10-11T07:32:34.443Z,11.88
2022-10-11T07:33:33.770Z,11.89
2022-10-11T07:34:33.902Z,11.91
2022-10-11T07:35:34.558Z,11.94
2022-10-11T07:36:33.852Z,11.97
2022-10-11T07:37:41.462Z,12.02
2022-10-11T07:38:35.061Z,12.08
2022-10-11T07:39:33.802Z,12.14
2022-10-11T07:40:33.864Z,12.20
2022-10-11T07:41:33.737Z,12.26
2022-10-11T07:42:33.756Z,12.33
2022-10-11T07:43:33.747Z,12.37
2022-10-11T07:44:33.701Z,12.40
2022-10-11T07:45:33.864Z,12.42
2022-10-11T07:46:34.191Z,12.43
2022-10-11T07:47:33.652Z,12.44
2022-10-11T07:48:33.684Z,12.46
2022-10-11T07:49:33.862Z,12.48
2022-10-11T07:50:33.665Z,12.50
2022-10-11T07:51:33.831Z,12.52
2022-10-11T07:52:33.652Z,12.55
2022-10-11T07:53:33.750Z,12.58
2022-10-11T07:54:33.686Z,12.62
2022-10-11T07:55:33.741Z,12.67
2022-10-11T07:56:33.572Z,12.70
2022-10-11T07:57:33.532Z,12.71
2022-10-11T07:58:33.713Z,12.73
2022-10-11T07:59:33.462Z,12.74
2022-10-11T08:00:33.369Z,12.76
2022-10-11T08:01:33.510Z,12.78
2022-10-11T08:02:33.424Z,12.79
2022-10-11T08:03:34.081Z,12.80
2022-10-11T08:04:33.394Z,12.82
2022-10-11T08:05:33.372Z,12.84
2022-10-11T08:06:33.293Z,12.86
2022-10-11T08:07:33.321Z,12.89
2022-10-11T08:08:33.262Z,12.94
2022-10-11T08:09:33.349Z,12.99
2022-10-11T08:10:33.263Z,13.04
2022-10-11T08:11:33.446Z,13.06
2022-10-11T08:12:33.251Z,13.09
2022-10-11T08:13:33.236Z,13.12
2022-10-11T08:14:33.215Z,13.17
2022-10-11T08:15:33.346Z,13.20
2022-10-11T08:16:33.195Z,13.22
2022-10-11T08:17:33.554Z,13.24
2022-10-11T08:18:33.135Z,13.27
2022-10-11T08:19:33.193Z,13.30
2022-10-11T08:20:33.344Z,13.33
2022-10-11T08:21:33.186Z,13.37
2022-10-11T08:22:33.069Z,13.41
2022-10-11T08:23:33.802Z,13.43
2022-10-11T08:24:38.184Z,13.46
2022-10-11T08:25:34.052Z,13.47
2022-10-11T08:26:33.303Z,13.49
2022-10-11T08:27:33.831Z,13.51
2022-10-11T08:28:33.538Z,13.52
2022-10-11T08:29:33.174Z,13.53
2022-10-11T08:30:33.656Z,13.54
2022-10-11T08:31:33.131Z,13.56
2022-10-11T08:32:33.123Z,13.60
2022-10-11T08:33:33.392Z,13.64
2022-10-11T08:34:32.986Z,13.67
2022-10-11T08:35:33.305Z,13.70
2022-10-11T08:36:33.142Z,13.72
2022-10-11T08:37:32.900Z,13.73
2022-10-11T08:38:32.985Z,13.75
2022-10-11T08:39:32.942Z,13.76
2022-10-11T08:40:36.550Z,13.79
2022-10-11T08:41:43.252Z,13.83
2022-10-11T08:42:33.973Z,13.89
2022-10-11T08:43:33.402Z,13.95
2022-10-11T08:44:51.896Z,13.99
2022-10-11T08:45:33.862Z,14.00
2022-10-11T08:46:32.771Z,14.02
2022-10-11T08:47:32.982Z,14.04
2022-10-11T08:48:32.897Z,14.06
2022-10-11T08:49:32.743Z,14.08
2022-10-11T08:50:33.092Z,14.12
2022-10-11T08:52:12.353Z,14.15
2022-10-11T08:52:33.735Z,14.18
2022-10-11T08:53:32.687Z,14.22
2022-10-11T08:54:33.513Z,14.26
2022-10-11T08:55:34.123Z,14.30
2022-10-11T08:56:41.405Z,14.34
2022-10-11T08:57:33.755Z,14.39
2022-10-11T08:58:34.832Z,14.44
2022-10-11T08:59:32.753Z,14.49
2022-10-11T09:00:32.632Z,14.54
2022-10-11T09:01:33.245Z,14.59
2022-10-11T09:02:55.634Z,14.62
2022-10-11T09:03:36.120Z,14.67
2022-10-11T09:04:44.164Z,14.71
2022-10-11T09:05:45.482Z,14.72
2022-10-11T09:08:24.412Z,14.31
2022-10-11T09:09:20.671Z,14.31
2022-10-11T09:09:42.188Z,14.57
2022-10-11T09:10:44.243Z,14.71
2022-10-11T09:11:45.428Z,14.81
2022-10-11T09:12:41.826Z,14.88
2022-10-11T09:13:42.318Z,14.94
2022-10-11T09:14:45.360Z,14.99
2022-10-11T09:15:51.380Z,15.03
2022-10-11T09:16:41.558Z,15.05
2022-10-11T09:17:45.846Z,15.09
2022-10-11T09:18:47.920Z,15.11
2022-10-11T09:19:49.988Z,15.14
2022-10-11T09:21:18.324Z,15.19
2022-10-11T09:21:46.127Z,15.24
2022-10-11T09:22:42.048Z,15.29
2022-10-11T09:23:43.705Z,15.34
2022-10-11T09:24:43.512Z,15.38
2022-10-11T09:25:42.079Z,15.43
2022-10-11T09:26:40.758Z,15.47
2022-10-11T09:28:02.452Z,15.50
2022-10-11T09:28:46.271Z,15.54
2022-10-11T09:29:44.782Z,15.57
2022-10-11T09:30:43.808Z,15.60
2022-10-11T09:33:17.684Z,15.08
2022-10-11T09:34:12.698Z,15.09
2022-10-11T09:35:05.934Z,15.33
2022-10-11T09:36:07.508Z,15.48
2022-10-11T09:36:59.355Z,15.58
2022-10-11T09:38:00.206Z,15.64
2022-10-11T09:39:07.662Z,15.70
2022-10-11T09:40:23.744Z,15.75
2022-10-11T09:40:59.052Z,15.79
2022-10-11T09:41:58.997Z,15.84
2022-10-11T09:43:12.197Z,15.86
2022-10-11T09:44:02.847Z,15.88
2022-10-11T09:45:14.145Z,15.91
2022-10-11T09:46:02.528Z,15.95
2022-10-11T09:47:02.155Z,15.99
2022-10-11T09:48:06.651Z,16.03
2022-10-11T09:49:06.926Z,16.08
2022-10-11T09:49:59.738Z,16.11
2022-10-11T09:50:59.193Z,16.14
2022-10-11T09:51:59.246Z,16.18
2022-10-11T09:52:59.195Z,16.21
2022-10-11T09:54:07.696Z,16.25
2022-10-11T09:54:58.928Z,16.28
2022-10-11T09:55:59.869Z,16.30
2022-10-11T09:56:59.056Z,16.31
2022-10-11T09:58:01.146Z,16.31
2022-10-11T09:58:59.224Z,16.33
2022-10-11T09:59:59.128Z,16.35
2022-10-11T10:00:58.652Z,16.38
2022-10-11T10:01:59.565Z,16.40
2022-10-11T10:02:58.649Z,16.44
2022-10-11T10:03:59.244Z,16.48
2022-10-11T10:04:59.226Z,16.54
2022-10-11T10:05:59.327Z,16.60
2022-10-11T10:06:59.046Z,16.67
2022-10-11T10:08:04.798Z,16.73
2022-10-11T10:08:58.964Z,16.80
2022-10-11T10:10:00.728Z,16.87
2022-10-11T10:11:07.913Z,16.94
2022-10-11T10:11:58.576Z,17.01
2022-10-11T10:13:07.048Z,17.07
2022-10-11T10:14:08.468Z,17.13
2022-10-11T10:14:58.909Z,17.19
2022-10-11T10:16:00.036Z,17.25
2022-10-11T10:17:04.468Z,17.31
2022-10-11T10:17:58.844Z,17.36
2022-10-11T10:18:59.249Z,17.41
2022-10-11T10:19:58.627Z,17.47
2022-10-11T10:20:58.944Z,17.53
2022-10-11T10:21:58.408Z,17.58
2022-10-11T10:22:58.706Z,17.63
2022-10-11T10:23:58.965Z,17.66
2022-10-11T10:24:59.919Z,17.69
2022-10-11T10:25:59.228Z,17.73
2022-10-11T10:26:58.398Z,17.78
2022-10-11T10:27:58.504Z,17.83
2022-10-11T10:28:58.482Z,17.89
2022-10-11T10:30:06.511Z,17.95
2022-10-11T10:31:02.690Z,18.00
2022-10-11T10:32:13.795Z,18.04
2022-10-11T10:32:59.231Z,18.07
2022-10-11T10:33:58.439Z,18.11
2022-10-11T10:34:58.389Z,18.14
2022-10-11T10:35:59.420Z,18.17
2022-10-11T10:36:58.270Z,18.21
2022-10-11T10:37:59.716Z,18.24
2022-10-11T10:38:58.289Z,18.29
2022-10-11T10:39:58.178Z,18.33
2022-10-11T10:40:58.166Z,18.38
2022-10-11T10:41:58.198Z,18.43
2022-10-11T10:42:58.101Z,18.48
2022-10-11T10:43:58.180Z,18.54
2022-10-11T10:44:58.108Z,18.59
2022-10-11T10:46:00.301Z,18.63
2022-10-11T10:46:58.079Z,18.66
2022-10-11T10:47:58.840Z,18.70
2022-10-11T10:49:59.858Z,18.78
2022-10-11T10:50:57.971Z,18.81
2022-10-11T10:51:58.061Z,18.83
2022-10-11T10:52:58.821Z,18.86
2022-10-11T10:53:58.083Z,18.91
2022-10-11T10:55:02.743Z,18.95
2022-10-11T10:56:00.711Z,18.98
2022-10-11T10:56:58.162Z,18.99
2022-10-11T10:58:01.583Z,18.98
2022-10-11T10:58:58.032Z,18.98
2022-10-11T11:00:00.034Z,18.98
2022-10-11T11:00:57.862Z,19.00
2022-10-11T11:02:06.753Z,19.04
2022-10-11T11:02:58.924Z,19.06
2022-10-11T11:03:57.872Z,19.09
2022-10-11T11:05:00.814Z,19.11
2022-10-11T11:05:57.843Z,19.14
2022-10-11T11:06:58.154Z,19.17
2022-10-11T11:07:57.818Z,19.19
2022-10-11T11:08:58.942Z,19.19
2022-10-11T11:09:57.812Z,19.18
2022-10-11T11:10:58.504Z,19.18
2022-10-11T11:12:02.176Z,19.18
2022-10-11T11:12:57.711Z,19.22
2022-10-11T11:13:57.753Z,19.28
2022-10-11T11:14:57.765Z,19.37
2022-10-11T11:15:57.876Z,19.45
2022-10-11T11:16:57.724Z,19.51
2022-10-11T11:17:57.972Z,19.58
2022-10-11T11:18:58.752Z,19.67
2022-10-11T11:19:57.949Z,19.76
2022-10-11T11:20:57.714Z,19.84
2022-10-11T11:21:57.786Z,19.90
2022-10-11T11:22:58.754Z,19.93
2022-10-11T11:23:58.045Z,19.95
2022-10-11T11:24:57.565Z,19.95
2022-10-11T11:25:57.715Z,19.95
2022-10-11T11:26:57.507Z,19.95
2022-10-11T11:27:57.610Z,19.95
2022-10-11T11:28:57.541Z,19.94
2022-10-11T11:29:57.755Z,19.92
2022-10-11T11:31:18.549Z,19.89
2022-10-11T11:32:18.516Z,19.86
2022-10-11T11:32:57.476Z,19.84
2022-10-11T11:33:57.675Z,19.83
2022-10-11T11:34:58.137Z,19.83
2022-10-11T11:35:58.395Z,19.83
2022-10-11T11:36:57.686Z,19.85
2022-10-11T11:38:02.528Z,19.88
2022-10-11T11:38:58.363Z,19.94
2022-10-11T11:39:57.396Z,19.96
2022-10-11T11:40:57.326Z,19.96
2022-10-11T11:41:57.407Z,19.95
2022-10-11T11:42:57.347Z,19.93
2022-10-11T11:43:57.445Z,19.89
2022-10-11T11:44:57.327Z,19.85
2022-10-11T11:45:57.366Z,19.82
2022-10-11T11:46:57.239Z,19.77
2022-10-11T11:47:57.679Z,19.70
2022-10-11T11:49:31.475Z,19.65
2022-10-11T11:49:57.299Z,19.62
2022-10-11T11:50:57.725Z,19.58
2022-10-11T11:51:57.167Z,19.54
2022-10-11T11:52:58.168Z,19.50
2022-10-11T11:53:57.159Z,19.47
2022-10-11T11:55:01.445Z,19.46
2022-10-11T11:56:00.408Z,19.47
2022-10-11T11:56:57.237Z,19.49
2022-10-11T11:57:57.378Z,19.51
2022-10-11T11:58:57.249Z,19.55
2022-10-11T11:59:57.059Z,19.58
2022-10-11T12:01:02.858Z,19.61
2022-10-11T12:01:57.981Z,19.64
2022-10-11T12:02:57.260Z,19.67
2022-10-11T12:03:57.856Z,19.73
2022-10-11T12:05:00.648Z,19.83
2022-10-11T12:05:57.231Z,19.93
2022-10-11T12:07:14.964Z,20.00
2022-10-11T12:07:58.200Z,20.07
2022-10-11T12:08:58.861Z,20.13
2022-10-11T12:10:00.260Z,20.14
2022-10-11T12:11:01.603Z,20.14
2022-10-11T12:11:58.991Z,20.13
2022-10-11T12:13:17.296Z,20.15
2022-10-11T12:14:05.021Z,20.18
2022-10-11T12:14:57.502Z,20.22
2022-10-11T12:15:57.402Z,20.29
2022-10-11T12:16:58.814Z,20.32
2022-10-11T12:17:59.991Z,20.34
2022-10-11T12:19:12.083Z,20.34
2022-10-11T12:19:57.354Z,20.31
2022-10-11T12:20:57.174Z,20.27
2022-10-11T12:22:00.252Z,20.23
2022-10-11T12:22:57.701Z,20.19
2022-10-11T12:23:56.922Z,20.14
2022-10-11T12:24:56.906Z,20.10
2022-10-11T12:25:57.769Z,20.07
2022-10-11T12:26:57.403Z,20.04
2022-10-11T12:28:01.664Z,20.02
2022-10-11T12:28:56.815Z,20.01
2022-10-11T12:29:57.126Z,20.01
2022-10-11T12:30:56.954Z,20.00
2022-10-11T12:31:57.923Z,20.03
2022-10-11T12:32:56.747Z,20.06
2022-10-11T12:33:57.194Z,20.10
2022-10-11T12:34:58.653Z,20.13
2022-10-11T12:36:05.694Z,20.17
2022-10-11T12:37:03.209Z,20.23
2022-10-11T12:37:58.115Z,20.28
2022-10-11T12:38:57.382Z,20.33
2022-10-11T12:39:57.050Z,20.36
2022-10-11T12:40:56.715Z,20.40
2022-10-11T12:42:01.523Z,20.41
2022-10-11T12:43:04.483Z,20.47
2022-10-11T12:43:57.205Z,20.55
2022-10-11T12:44:56.577Z,20.65
2022-10-11T12:45:57.137Z,20.74
2022-10-11T12:47:07.426Z,20.81
2022-10-11T12:47:56.488Z,20.83
2022-10-11T12:48:56.667Z,20.82
2022-10-11T12:50:01.085Z,20.81
2022-10-11T12:51:00.754Z,20.80
2022-10-11T12:51:57.846Z,20.80
2022-10-11T12:52:56.514Z,20.80
2022-10-11T12:54:21.546Z,20.78
2022-10-11T12:54:57.725Z,20.78
2022-10-11T12:55:59.365Z,20.77
2022-10-11T12:56:56.581Z,20.75
2022-10-11T12:57:56.637Z,20.73